Time;durP1;ratioP1;P1;durP2;ratioP2;P2;SDS_P1;SDS_P2;PMS_P1;PMS_P2;Temp;Humidity;BMP_temperature;BMP_pressure;BME280_temperature;BME280_humidity;BME280_pressure;Samples;Min_cycle;Max_cycle;Signal;HPM_P1;HPM_P2
2023/06/19 07:23:07;;;;;;;10.43;9.38;;;;;;;-145.79;57.58;76499.84;5322649;27;20392;-76
2023/06/19 07:25:38;;;;;;;10.90;9.82;;;;;;;-145.79;58.03;76501.97;5321932;28;20032;-76
2023/06/19 07:28:09;;;;;;;10.82;9.73;;;;;;;-145.79;58.15;76499.84;5304232;28;20027;-74
2023/06/19 07:30:40;;;;;;;10.27;9.35;;;;;;;-145.79;58.45;76489.25;5300758;28;20103;-74
2023/06/19 07:33:12;;;;;;;9.05;8.18;;;;;;;-145.79;58.15;76468.06;5301122;28;20040;-74
2023/06/19 07:35:44;;;;;;;8.48;7.78;;;;;;;-145.79;57.74;76457.47;5299442;28;20032;-75
2023/06/19 07:38:16;;;;;;;9.48;7.75;;;;;;;-145.79;58.32;76468.06;5298499;28;20041;-75
2023/06/19 07:40:47;;;;;;;8.75;7.75;;;;;;;-145.79;57.78;76474.41;5300553;28;20024;-75
2023/06/19 07:43:18;;;;;;;9.02;7.55;;;;;;;-145.79;57.76;76472.28;5300308;28;20082;-74
2023/06/19 07:45:50;;;;;;;9.63;8.68;;;;;;;-145.79;57.80;76465.94;5300435;28;20054;-74
2023/06/19 07:48:24;;;;;;;10.45;8.23;;;;;;;-145.79;57.27;76461.69;5301061;28;20077;-74
2023/06/19 07:50:55;;;;;;;8.23;6.97;;;;;;;-145.79;57.69;76459.56;5300202;28;20115;-74
2023/06/19 07:53:32;;;;;;;7.90;6.97;;;;;;;-145.79;56.72;76451.09;5299611;28;20077;-75
2023/06/19 07:56:03;;;;;;;8.57;7.78;;;;;;;-145.79;56.81;76455.34;5299863;28;20032;-74
2023/06/19 07:58:35;;;;;;;8.68;7.57;;;;;;;-145.79;56.73;76448.97;5300744;28;20085;-74
2023/06/19 08:01:06;;;;;;;11.95;9.02;;;;;;;-145.79;56.08;76453.22;5288369;28;20032;-74
2023/06/19 08:03:37;;;;;;;9.23;8.23;;;;;;;-145.79;55.96;76434.16;5280171;28;20036;-75
2023/06/19 08:06:09;;;;;;;8.05;6.72;;;;;;;-145.79;55.39;76444.75;5280584;28;20104;-75
2023/06/19 08:08:43;;;;;;;8.30;6.97;;;;;;;-145.79;54.95;76421.44;5279597;28;20032;-74
2023/06/19 08:11:14;;;;;;;9.60;7.22;;;;;;;-145.79;54.76;76419.31;5297930;28;20033;-74
2023/06/19 08:13:46;;;;;;;9.63;8.20;;;;;;;-145.79;54.21;76412.97;5300047;28;20475;-74
2023/06/19 08:16:18;;;;;;;8.48;7.03;;;;;;;-145.79;54.10;76396.00;5300034;28;20028;-75
2023/06/19 08:18:49;;;;;;;8.35;6.80;;;;;;;-145.79;54.65;76406.59;5299619;28;20035;-76
2023/06/19 08:21:21;;;;;;;18.67;16.88;;;;;;;-145.79;54.71;76381.16;5299752;28;20411;-75
2023/06/19 08:23:52;;;;;;;7.35;6.75;;;;;;;-145.79;54.10;76408.72;5299529;28;20027;-74
2023/06/19 08:26:23;;;;;;;7.68;6.93;;;;;;;-145.79;54.36;76393.88;5298824;28;20107;-74
2023/06/19 08:28:55;;;;;;;8.43;7.63;;;;;;;-145.79;54.38;76391.78;5299807;28;20425;-74
2023/06/19 08:31:28;;;;;;;8.60;7.80;;;;;;;-145.79;53.88;76400.25;5299190;28;20482;-74
2023/06/19 08:34:00;;;;;;;8.80;7.88;;;;;;;-145.79;53.74;76406.59;5288594;28;20028;-75
2023/06/19 08:36:31;;;;;;;8.75;7.68;;;;;;;-145.79;54.05;76410.84;5285603;28;20040;-75
2023/06/19 08:39:03;;;;;;;8.07;7.32;;;;;;;-145.79;54.14;76412.97;5285397;28;20063;-75
2023/06/19 08:41:37;;;;;;;9.32;6.53;;;;;;;-145.79;54.65;76412.97;5285574;28;20036;-75
2023/06/19 08:44:09;;;;;;;8.18;7.45;;;;;;;-145.79;54.27;76415.06;5284808;28;20130;-75
2023/06/19 08:46:41;;;;;;;9.50;7.53;;;;;;;-145.79;54.21;76404.47;5284905;28;20029;-76
2023/06/19 08:49:13;;;;;;;9.45;8.40;;;;;;;-145.79;54.41;76402.38;5285245;28;20020;-74
2023/06/19 08:51:44;;;;;;;8.88;8.00;;;;;;;-145.79;53.47;76385.41;5284894;28;20093;-75
2023/06/19 08:54:15;;;;;;;7.95;7.25;;;;;;;-145.79;51.76;76385.41;5284993;28;20025;-74
2023/06/19 08:56:47;;;;;;;7.80;7.07;;;;;;;-145.79;51.53;76374.81;5284928;28;20174;-75
2023/06/19 08:59:19;;;;;;;8.00;7.30;;;;;;;-145.79;50.89;76359.97;5284849;28;20468;-75
2023/06/19 09:01:52;;;;;;;8.02;7.10;;;;;;;-145.79;51.25;76343.03;5284183;28;20028;-75
2023/06/19 09:04:26;;;;;;;9.00;8.10;;;;;;;-145.79;51.26;76345.16;5285107;28;20464;-76
2023/06/19 09:07:02;;;;;;;7.85;7.10;;;;;;;-145.79;50.67;76328.19;5284576;28;20106;-75
2023/06/19 09:09:34;;;;;;;10.40;8.02;;;;;;;-145.79;50.53;76332.44;5285566;28;20024;-75
2023/06/19 09:12:07;;;;;;;8.98;8.20;;;;;;;-145.79;50.58;76334.56;5284589;28;20028;-74
2023/06/19 09:14:41;;;;;;;8.90;7.70;;;;;;;-145.79;50.39;76334.56;5284713;28;20036;-74
2023/06/19 09:17:18;;;;;;;9.00;7.80;;;;;;;-145.79;50.08;76315.47;5283717;28;20540;-74
2023/06/19 09:19:57;;;;;;;9.52;7.55;;;;;;;-145.79;49.71;76326.06;5285249;28;20475;-75
2023/06/19 09:22:29;;;;;;;10.15;7.88;;;;;;;-145.79;49.52;76317.59;5284568;28;20441;-74
2023/06/19 09:25:02;;;;;;;8.00;7.20;;;;;;;-145.79;48.38;76307.00;5271748;28;20106;-77
2023/06/19 09:27:34;;;;;;;28.88;25.98;;;;;;;-145.79;49.03;76304.88;5264715;28;20051;-78
2023/06/19 09:30:06;;;;;;;17.67;12.55;;;;;;;-145.79;48.15;76304.88;5264294;28;20536;-78
2023/06/19 09:32:37;;;;;;;14.93;8.82;;;;;;;-145.79;48.46;76300.66;5267781;28;20429;-76
2023/06/19 09:35:08;;;;;;;12.07;8.10;;;;;;;-145.79;48.02;76300.66;5273283;28;20029;-76
2023/06/19 09:37:40;;;;;;;11.90;8.45;;;;;;;-145.79;48.27;76298.53;5284494;28;20044;-76
2023/06/19 09:40:13;;;;;;;8.63;7.43;;;;;;;-145.79;47.36;76290.06;5284219;28;20464;-75
2023/06/19 09:42:47;;;;;;;10.80;8.57;;;;;;;-145.79;48.08;76328.19;5283796;28;20025;-77
2023/06/19 09:45:23;;;;;;;9.10;8.18;;;;;;;-145.79;47.75;76309.13;5283415;28;20093;-80
2023/06/19 09:47:54;;;;;;;12.57;7.85;;;;;;;-145.79;47.39;76309.13;5284480;28;20027;-79
2023/06/19 09:50:27;;;;;;;9.65;8.65;;;;;;;-145.79;47.85;76304.88;5283814;28;20107;-79
2023/06/19 09:52:58;;;;;;;9.15;8.20;;;;;;;-145.79;48.25;76290.06;5282853;28;20025;-78
2023/06/19 09:55:31;;;;;;;9.13;8.32;;;;;;;-145.79;47.37;76290.06;5283916;28;20490;-79
2023/06/19 09:58:05;;;;;;;8.82;7.95;;;;;;;-145.79;47.81;76283.69;5284282;28;20078;-79
2023/06/19 10:00:37;;;;;;;10.57;9.52;;;;;;;-145.79;48.02;76283.69;5283841;28;20472;-78
2023/06/19 10:03:12;;;;;;;11.88;10.68;;;;;;;-145.79;47.88;76279.47;5283457;28;20045;-79
2023/06/19 10:05:43;;;;;;;12.75;11.27;;;;;;;-145.79;47.55;76266.75;5284380;28;20024;-79
2023/06/19 10:08:30;;;;;;;8.82;7.93;;;;;;;-145.79;45.81;76266.75;5282980;28;20104;-78
2023/06/19 10:11:01;;;;;;;9.43;7.88;;;;;;;-145.79;45.61;76275.22;5283176;28;20028;-80
2023/06/19 10:13:35;;;;;;;9.27;8.32;;;;;;;-145.79;45.69;76264.63;5284040;28;20024;-80
2023/06/19 10:16:07;;;;;;;8.50;7.80;;;;;;;-145.79;45.76;76268.84;5284050;28;20039;-79
2023/06/19 10:18:50;;;;;;;8.85;7.78;;;;;;;-145.79;45.85;76262.50;5283753;28;20021;-79
2023/06/19 10:21:44;;;;;;;9.73;8.48;;;;;;;-145.79;45.59;76266.75;5283897;28;20092;-78
2023/06/19 10:24:24;;;;;;;10.73;7.95;;;;;;;-145.79;45.46;76266.75;5285770;28;20024;-78
2023/06/19 10:27:00;;;;;;;8.38;7.57;;;;;;;-145.79;45.29;76258.25;5267089;28;20036;-78
2023/06/19 10:29:41;;;;;;;49.78;45.17;;;;;;;-145.79;44.65;76245.56;5263428;28;20017;-78
2023/06/19 10:32:12;;;;;;;12.25;11.05;;;;;;;-145.79;44.81;76247.66;5262641;28;20028;-77
2023/06/19 10:34:50;;;;;;;8.40;7.63;;;;;;;-145.79;44.42;76228.59;5267841;28;20359;-78
2023/06/19 10:37:33;;;;;;;11.68;10.48;;;;;;;-145.79;44.85;76226.47;5282983;28;20052;-71
2023/06/19 10:40:12;;;;;;;9.95;7.50;;;;;;;-145.79;45.10;76226.47;5266155;28;20372;-76
2023/06/19 10:42:44;;;;;;;9.90;7.53;;;;;;;-145.79;44.79;76232.84;5280607;28;20082;-75
2023/06/19 10:45:19;;;;;;;9.48;7.28;;;;;;;-145.79;45.12;76226.47;5282714;28;20052;-73
2023/06/19 10:47:50;;;;;;;7.18;6.40;;;;;;;-145.79;44.26;76232.84;5265839;28;20033;-77
2023/06/19 10:50:22;;;;;;;9.23;8.32;;;;;;;-145.79;44.26;76245.56;5262642;28;20495;-75
2023/06/19 10:52:57;;;;;;;9.45;8.30;;;;;;;-145.79;45.01;76262.50;5261796;28;20072;-76
2023/06/19 10:55:28;;;;;;;9.43;7.23;;;;;;;-145.79;45.12;76228.59;5262250;28;20479;-75
2023/06/19 10:58:00;;;;;;;9.77;8.73;;;;;;;-145.79;45.27;76249.78;5248090;28;20311;-75
2023/06/19 11:00:33;;;;;;;11.57;8.73;;;;;;;-145.79;45.51;76232.84;5276668;28;20020;-75
2023/06/19 11:03:08;;;;;;;9.95;8.45;;;;;;;-145.79;45.17;76245.56;5281847;28;20039;-74
2023/06/19 11:05:48;;;;;;;9.75;8.18;;;;;;;-145.79;45.12;76262.50;5265476;28;20132;-74
2023/06/19 11:08:25;;;;;;;8.45;7.55;;;;;;;-145.79;44.32;76260.38;5252613;28;20039;-74
2023/06/19 11:10:58;;;;;;;9.20;8.30;;;;;;;-145.79;44.43;76234.97;5271869;28;20037;-74
2023/06/19 11:13:29;;;;;;;12.70;8.25;;;;;;;-145.79;44.89;76228.59;5265812;28;20025;-75
2023/06/19 11:16:01;;;;;;;10.10;8.88;;;;;;;-145.79;45.39;76220.13;5264507;28;20384;-74
2023/06/19 11:18:32;;;;;;;10.25;8.85;;;;;;;-145.79;44.78;76203.16;5283696;28;20078;-75
2023/06/19 11:21:04;;;;;;;8.60;7.50;;;;;;;-145.79;44.09;76171.38;5281726;28;20033;-74
2023/06/19 11:23:35;;;;;;;10.10;8.63;;;;;;;-145.79;43.64;76177.75;5279784;28;20047;-75
2023/06/19 11:26:07;;;;;;;9.02;8.18;;;;;;;-145.79;43.28;76165.03;5281108;28;20047;-73
2023/06/19 11:28:38;;;;;;;11.63;9.35;;;;;;;-145.79;43.12;76188.34;5261285;28;20389;-74
2023/06/19 11:31:10;;;;;;;9.02;8.10;;;;;;;-145.79;43.12;76143.84;5266283;28;20476;-74
2023/06/19 11:33:41;;;;;;;8.57;7.68;;;;;;;-145.79;42.73;76129.00;5281085;28;20040;-74
2023/06/19 11:36:12;;;;;;;8.05;7.20;;;;;;;-145.79;42.73;76114.19;5282519;28;20063;-75
2023/06/19 11:38:46;;;;;;;9.57;8.35;;;;;;;-145.79;42.75;76105.69;5281699;28;20079;-74
2023/06/19 11:41:28;;;;;;;10.55;9.55;;;;;;;-145.79;43.09;76109.94;5275041;28;20029;-75
2023/06/19 11:44:09;;;;;;;8.68;7.90;;;;;;;-145.79;42.98;76092.97;5261733;28;20025;-76
2023/06/19 11:46:40;;;;;;;7.68;6.78;;;;;;;-145.79;41.71;76090.88;5261823;28;20040;-76
2023/06/19 11:49:18;;;;;;;8.30;7.53;;;;;;;-145.79;42.04;76101.47;5260888;28;20028;-75
2023/06/19 11:51:49;;;;;;;9.32;7.65;;;;;;;-145.79;41.73;76080.28;5269264;28;20047;-76
2023/06/19 11:54:24;;;;;;;8.85;7.95;;;;;;;-145.79;41.34;76065.44;5277876;28;20020;-76
2023/06/19 11:56:56;;;;;;;9.82;8.82;;;;;;;-145.79;42.12;76107.81;5283488;28;20364;-74
2023/06/19 11:59:27;;;;;;;8.57;6.82;;;;;;;-145.79;40.56;76065.44;5285222;28;20028;-75
2023/06/19 12:01:59;;;;;;;6.93;6.32;;;;;;;-145.79;39.47;76059.09;5282825;28;20098;-76
2023/06/19 12:04:37;;;;;;;29.42;26.70;;;;;;;-145.79;38.95;76054.84;5282445;28;20048;-76
2023/06/19 12:07:11;;;;;;;22.33;20.02;;;;;;;-145.79;39.72;76048.47;5263254;28;20025;-76
2023/06/19 12:09:43;;;;;;;12.07;10.60;;;;;;;-145.79;39.58;76029.41;5285531;28;20503;-76
2023/06/19 12:12:14;;;;;;;18.80;9.70;;;;;;;-145.79;39.86;75993.41;5288950;28;20375;-76
2023/06/19 12:14:46;;;;;;;8.10;7.10;;;;;;;-145.79;39.53;76004.00;5288833;28;20021;-76
2023/06/19 12:17:20;;;;;;;9.23;7.05;;;;;;;-145.79;38.46;75999.75;5279274;28;20112;-76
2023/06/19 12:19:54;;;;;;;6.60;5.82;;;;;;;-145.79;37.63;75999.75;5264462;28;20029;-76
2023/06/19 12:22:26;;;;;;;8.77;7.07;;;;;;;-145.79;37.84;75999.75;5276406;28;20129;-75
2023/06/19 12:24:58;;;;;;;9.38;7.57;;;;;;;-145.79;38.34;76023.06;5287219;28;20498;-75
2023/06/19 12:27:31;;;;;;;8.85;7.15;;;;;;;-145.79;38.92;75978.56;5287389;28;20024;-76
2023/06/19 12:30:03;;;;;;;8.32;6.82;;;;;;;-145.79;38.11;75970.09;5289065;28;20020;-76
2023/06/19 12:32:37;;;;;;;11.90;7.22;;;;;;;-145.79;36.95;75959.50;5286532;28;20055;-75
2023/06/19 12:35:10;;;;;;;8.38;7.55;;;;;;;-145.79;37.13;75938.31;5286409;28;20364;-77
2023/06/19 12:37:47;;;;;;;7.78;6.97;;;;;;;-145.79;37.08;75948.91;5285887;28;20024;-76
2023/06/19 12:40:19;;;;;;;8.63;7.72;;;;;;;-145.79;37.37;75936.19;5270948;28;20380;-74
2023/06/19 12:42:50;;;;;;;9.35;8.15;;;;;;;-145.79;38.22;75938.31;5269668;28;20033;-74
2023/06/19 12:45:33;;;;;;;10.20;8.70;;;;;;;-145.79;38.20;75910.75;5266630;28;20028;-76
2023/06/19 12:48:10;;;;;;;8.73;7.80;;;;;;;-145.79;36.88;75898.03;5271575;28;20121;-75
2023/06/19 12:50:41;;;;;;;7.28;6.55;;;;;;;-145.79;35.71;75902.28;5268641;28;20391;-75
2023/06/19 12:53:18;;;;;;;10.48;8.20;;;;;;;-145.79;36.73;75906.53;5284765;28;20048;-77
2023/06/19 12:55:49;;;;;;;9.82;7.53;;;;;;;-145.79;36.97;75900.16;5277766;28;20106;-75
2023/06/19 12:58:21;;;;;;;9.15;8.23;;;;;;;-145.79;37.04;75874.75;5264745;28;20052;-75
2023/06/19 13:00:53;;;;;;;10.25;8.55;;;;;;;-145.79;36.75;75881.09;5264460;28;20032;-75
2023/06/19 13:03:27;;;;;;;11.00;7.43;;;;;;;-145.79;36.68;75872.63;5264130;28;20414;-70
2023/06/19 13:05:58;;;;;;;11.53;8.57;;;;;;;-145.79;36.61;75847.19;5263534;28;20052;-70
2023/06/19 13:08:30;;;;;;;7.38;6.68;;;;;;;-145.79;35.85;75849.31;5264566;28;20114;-74
2023/06/19 13:11:01;;;;;;;9.95;7.22;;;;;;;-145.79;35.63;75838.72;5285619;28;20020;-74
2023/06/19 13:13:32;;;;;;;7.72;6.93;;;;;;;-145.79;35.71;75815.41;5284990;28;20074;-74
2023/06/19 13:16:03;;;;;;;7.57;6.82;;;;;;;-145.79;35.51;75809.06;5283809;28;20048;-74
2023/06/19 13:18:35;;;;;;;6.38;5.75;;;;;;;-145.79;33.99;75847.19;5284963;28;20036;-73
2023/06/19 13:21:06;;;;;;;7.55;6.10;;;;;;;-145.79;34.72;75851.44;5284399;28;20028;-73
2023/06/19 13:23:38;;;;;;;8.18;6.53;;;;;;;-145.79;35.27;75872.63;5282757;28;20028;-74
2023/06/19 13:26:10;;;;;;;8.75;6.30;;;;;;;-145.79;34.39;75851.44;5284557;28;20024;-73
2023/06/19 13:28:42;;;;;;;10.07;5.75;;;;;;;-145.79;32.98;75817.53;5284776;28;20028;-74
2023/06/19 13:31:13;;;;;;;5.45;4.95;;;;;;;-145.79;32.93;75813.28;5284151;28;20041;-74
2023/06/19 13:33:44;;;;;;;8.55;6.10;;;;;;;-145.79;33.30;75802.69;5282822;28;20043;-74
2023/06/19 13:36:19;;;;;;;9.25;6.10;;;;;;;-145.79;32.17;75798.47;5284397;28;20045;-75
2023/06/19 13:38:51;;;;;;;6.65;5.95;;;;;;;-145.79;32.20;75775.16;5271162;28;20029;-75
2023/06/19 13:41:23;;;;;;;7.25;5.53;;;;;;;-145.79;32.00;75751.84;5263073;28;20499;-75
2023/06/19 13:43:54;;;;;;;6.25;5.65;;;;;;;-145.79;32.08;75751.84;5263210;28;20072;-74
2023/06/19 13:46:26;;;;;;;6.50;5.53;;;;;;;-145.79;32.28;75756.09;5263935;28;20385;-73
2023/06/19 13:48:58;;;;;;;7.47;5.50;;;;;;;-145.79;31.98;75743.38;5263225;28;20068;-72
2023/06/19 13:51:29;;;;;;;6.40;5.30;;;;;;;-145.79;31.01;75724.31;5268328;28;20107;-74
2023/06/19 13:54:03;;;;;;;12.52;11.32;;;;;;;-145.79;31.78;75707.34;5282248;28;20025;-72
2023/06/19 13:56:34;;;;;;;5.45;4.95;;;;;;;-145.79;31.43;75694.63;5283379;28;20025;-73
2023/06/19 13:59:06;;;;;;;6.15;5.10;;;;;;;-145.79;31.62;75758.19;5284154;28;20460;-74
2023/06/19 14:01:37;;;;;;;5.70;5.20;;;;;;;-145.79;32.10;75775.16;5283169;28;20066;-74
2023/06/19 14:04:08;;;;;;;7.00;5.55;;;;;;;-145.79;31.80;75726.41;5284006;28;20063;-74
2023/06/19 14:06:42;;;;;;;5.93;5.43;;;;;;;-145.79;31.72;75684.03;5280847;28;20021;-75
2023/06/19 14:09:15;;;;;;;6.97;6.13;;;;;;;-145.79;31.47;75677.69;5285674;28;20051;-74
2023/06/19 14:11:46;;;;;;;7.35;5.20;;;;;;;-145.79;31.74;75669.22;5284347;28;20031;-73
2023/06/19 14:14:23;;;;;;;6.25;5.68;;;;;;;-145.79;32.11;75660.75;5283600;28;20021;-74
2023/06/19 14:16:55;;;;;;;6.40;5.72;;;;;;;-145.79;31.46;75635.31;5282938;28;20013;-74
2023/06/19 14:19:28;;;;;;;6.07;5.47;;;;;;;-145.79;30.77;75664.97;5283511;28;20016;-73
2023/06/19 14:22:01;;;;;;;5.82;5.22;;;;;;;-145.79;30.90;75622.59;5274225;28;20091;-74
2023/06/19 14:24:33;;;;;;;6.75;5.53;;;;;;;-145.79;30.85;75645.91;5269920;28;20033;-73
2023/06/19 14:27:04;;;;;;;6.47;5.40;;;;;;;-145.79;30.93;75641.66;5283325;28;20490;-74
2023/06/19 14:29:36;;;;;;;6.30;5.70;;;;;;;-145.79;30.76;75660.75;5278263;28;20033;-72
2023/06/19 14:32:07;;;;;;;6.70;5.40;;;;;;;-145.79;30.93;75603.53;5282344;28;20028;-72
2023/06/19 14:34:46;;;;;;;6.85;5.57;;;;;;;-145.79;30.84;75584.47;5266752;28;20062;-73
2023/06/19 14:37:20;;;;;;;20.83;6.80;;;;;;;-145.79;30.57;75561.16;5262747;28;20090;-72
2023/06/19 14:39:51;;;;;;;6.13;5.35;;;;;;;-145.79;30.57;75567.53;5272506;28;20028;-73
2023/06/19 14:42:23;;;;;;;6.28;5.72;;;;;;;-145.79;30.96;75639.56;5282683;28;20081;-73
2023/06/19 14:44:54;;;;;;;7.18;5.60;;;;;;;-145.79;31.69;75664.97;5282356;28;20029;-72
2023/06/19 14:47:26;;;;;;;6.35;5.75;;;;;;;-145.79;32.14;75660.75;5282982;28;20017;-73
2023/06/19 14:49:57;;;;;;;6.55;4.97;;;;;;;-145.79;32.02;75628.97;5283044;28;20031;-72
2023/06/19 14:52:29;;;;;;;9.20;5.60;;;;;;;-145.79;31.92;75590.81;5282757;28;20016;-72
2023/06/19 14:55:01;;;;;;;9.02;7.15;;;;;;;-145.79;31.29;75597.19;5263326;28;20104;-73
2023/06/19 14:57:32;;;;;;;8.75;5.95;;;;;;;-145.79;31.13;75601.41;5262122;28;20044;-73
2023/06/19 15:00:07;;;;;;;6.55;5.70;;;;;;;-145.79;31.02;75597.19;5265873;28;20446;-72
2023/06/19 15:02:38;;;;;;;5.55;5.05;;;;;;;-145.79;31.19;75561.16;5261809;28;20064;-72
2023/06/19 15:05:10;;;;;;;6.75;5.10;;;;;;;-145.79;30.75;75633.19;5265591;28;20420;-70
2023/06/19 15:07:41;;;;;;;5.72;5.22;;;;;;;-145.79;30.76;75607.78;5279935;28;20039;-71
2023/06/19 15:10:12;;;;;;;5.90;5.22;;;;;;;-145.79;31.22;75618.38;5279421;28;20475;-71
2023/06/19 15:12:44;;;;;;;5.38;4.88;;;;;;;-145.79;30.75;75592.94;5277312;28;20124;-71
2023/06/19 15:15:15;;;;;;;6.38;5.40;;;;;;;-145.79;30.46;75607.78;5261015;28;20033;-69
2023/06/19 15:17:47;;;;;;;5.95;5.35;;;;;;;-145.79;30.83;75597.19;5264964;28;20029;-70
2023/06/19 15:20:20;;;;;;;5.88;5.38;;;;;;;-145.79;30.74;75582.34;5281980;28;20028;-70
2023/06/19 15:22:51;;;;;;;6.43;5.82;;;;;;;-145.79;31.47;75603.53;5266395;28;20145;-73
2023/06/19 15:25:22;;;;;;;8.70;7.35;;;;;;;-145.79;31.43;75573.88;5261919;28;20060;-72
2023/06/19 15:27:54;;;;;;;6.78;6.00;;;;;;;-145.79;31.13;75573.88;5274394;28;20020;-68
2023/06/19 15:30:25;;;;;;;7.55;6.25;;;;;;;-145.79;31.97;75580.22;5272819;28;20028;-68
2023/06/19 15:32:57;;;;;;;8.90;6.30;;;;;;;-145.79;31.55;75563.28;5261542;28;20454;-68
2023/06/19 15:35:29;;;;;;;6.63;5.60;;;;;;;-145.79;31.43;75588.72;5261069;28;20044;-69
2023/06/19 15:38:00;;;;;;;7.30;6.65;;;;;;;-145.79;32.93;75643.78;5262143;28;20029;-71
2023/06/19 15:40:31;;;;;;;6.97;6.38;;;;;;;-145.79;31.94;75597.19;5261807;28;20029;-70
2023/06/19 15:43:04;;;;;;;9.18;6.90;;;;;;;-145.79;31.65;75584.47;5262354;28;20400;-72
2023/06/19 15:45:35;;;;;;;9.02;5.97;;;;;;;-145.79;32.42;75590.81;5271101;28;20021;-71
2023/06/19 15:48:08;;;;;;;7.07;6.05;;;;;;;-145.79;32.01;75614.13;5285079;28;20021;-72
2023/06/19 15:50:39;;;;;;;6.25;5.03;;;;;;;-145.79;31.66;75618.38;5276366;28;20071;-72
2023/06/19 15:53:11;;;;;;;6.55;5.40;;;;;;;-145.79;32.24;75645.91;5284831;28;20032;-72
2023/06/19 15:55:42;;;;;;;5.97;5.40;;;;;;;-145.79;31.74;75618.38;5275598;28;20536;-67
2023/06/19 15:58:14;;;;;;;6.93;5.93;;;;;;;-145.79;31.88;75609.88;5286022;28;20044;-73
2023/06/19 16:00:49;;;;;;;7.78;6.25;;;;;;;-145.79;31.76;75595.06;5276960;28;20457;-76
2023/06/19 16:03:20;;;;;;;;;;;;;;;-145.79;31.86;75576.00;5265089;28;20029;-77
2023/06/19 16:05:52;;;;;;;7.20;5.60;;;;;;;-145.79;31.95;75603.53;5272990;28;19966;-76
2023/06/19 16:08:24;;;;;;;7.95;6.78;;;;;;;-145.79;31.74;75599.31;5285731;28;20021;-78
2023/06/19 16:10:55;;;;;;;7.78;5.75;;;;;;;-145.79;31.60;75565.41;5286456;28;20036;-79
2023/06/19 16:13:26;;;;;;;6.53;5.93;;;;;;;-145.79;31.78;75569.63;5286098;28;20094;-78
2023/06/19 16:15:57;;;;;;;6.03;5.43;;;;;;;-145.79;31.59;75576.00;5285467;28;20448;-77
2023/06/19 16:18:29;;;;;;;6.70;5.75;;;;;;;-145.79;31.19;75563.28;5285958;28;20468;-77
2023/06/19 16:21:00;;;;;;;14.82;13.30;;;;;;;-145.79;31.08;75567.53;5285755;28;20434;-77
2023/06/19 16:23:35;;;;;;;7.15;6.40;;;;;;;-145.79;30.82;75567.53;5273791;28;20016;-78
2023/06/19 16:26:07;;;;;;;9.40;7.10;;;;;;;-145.79;31.00;75563.28;5284022;28;20531;-76
2023/06/19 16:28:38;;;;;;;7.55;6.25;;;;;;;-145.79;31.16;75559.03;5285792;28;20108;-77
2023/06/19 16:31:11;;;;;;;6.05;5.47;;;;;;;-145.79;31.61;75563.28;5283614;28;20031;-76
2023/06/19 16:33:42;;;;;;;9.35;5.85;;;;;;;-145.79;31.21;75571.75;5286068;28;20099;-77
2023/06/19 16:36:13;;;;;;;6.28;5.68;;;;;;;-145.79;31.30;75563.28;5285243;28;20043;-77
2023/06/19 16:38:44;;;;;;;6.53;5.70;;;;;;;-145.79;31.59;75539.97;5283781;28;20029;-77
2023/06/19 16:41:19;;;;;;;6.03;5.53;;;;;;;-145.79;30.87;75531.50;5283883;28;20155;-76
2023/06/19 16:43:52;;;;;;;6.38;5.32;;;;;;;-145.79;31.51;75537.84;5285556;28;20053;-76
2023/06/19 16:46:26;;;;;;;5.75;5.15;;;;;;;-145.79;31.00;75533.63;5285314;28;20594;-76
2023/06/19 16:48:58;;;;;;;6.20;5.53;;;;;;;-145.79;30.96;75537.84;5285596;28;20038;-76
2023/06/19 16:51:30;;;;;;;5.75;5.25;;;;;;;-145.79;30.83;75529.38;5267120;28;20032;-76
2023/06/19 16:54:01;;;;;;;6.55;5.95;;;;;;;-145.79;30.85;75531.50;5283969;28;20021;-76
